Time;durP1;ratioP1;P1;durP2;ratioP2;P2;SDS_P1;SDS_P2;PMS_P1;PMS_P2;Temp;Humidity;BMP_temperature;BMP_pressure;BME280_temperature;BME280_humidity;BME280_pressure;Samples;Min_cycle;Max_cycle;Signal;HPM_P1;HPM_P2
2021/03/14 00:00:49;;;;;;;10.20;2.47;;;3.40;99.90;;;;;;5008905;28;20038;-61
2021/03/14 00:03:17;;;;;;;4.97;2.35;;;3.40;99.90;;;;;;5009243;28;20089;-62
2021/03/14 00:05:44;;;;;;;9.55;2.67;;;3.40;99.90;;;;;;5017172;28;20113;-62
2021/03/14 00:08:11;;;;;;;10.45;2.85;;;3.40;99.90;;;;;;5020710;28;20042;-62
2021/03/14 00:10:43;;;;;;;7.70;2.63;;;3.50;99.90;;;;;;5006677;28;20647;-62
2021/03/14 00:13:10;;;;;;;6.05;2.35;;;3.40;99.90;;;;;;5000344;28;20507;-62
2021/03/14 00:15:36;;;;;;;9.50;3.17;;;3.40;99.90;;;;;;5000662;28;20041;-62
2021/03/14 00:18:01;;;;;;;7.32;2.47;;;3.40;99.90;;;;;;5016914;28;20029;-62
2021/03/14 00:20:27;;;;;;;6.28;2.78;;;3.40;99.90;;;;;;5005583;28;20050;-62
2021/03/14 00:22:52;;;;;;;8.98;3.22;;;3.40;99.90;;;;;;5013526;28;20021;-59
2021/03/14 00:25:19;;;;;;;7.43;2.90;;;3.40;99.90;;;;;;5007375;28;20070;-60
2021/03/14 00:27:44;;;;;;;8.23;2.42;;;3.40;99.90;;;;;;5006961;28;20026;-62
2021/03/14 00:30:14;;;;;;;5.00;2.65;;;3.40;99.90;;;;;;5005869;28;20893;-62
2021/03/14 00:32:40;;;;;;;11.20;3.40;;;3.30;99.90;;;;;;5005488;28;20037;-61
2021/03/14 00:35:09;;;;;;;13.38;4.10;;;3.30;99.90;;;;;;5005907;28;20041;-60
2021/03/14 00:37:34;;;;;;;4.32;2.40;;;3.20;99.90;;;;;;5004394;28;20041;-60
2021/03/14 00:40:00;;;;;;;7.65;2.80;;;3.20;99.90;;;;;;4976114;28;20049;-62
2021/03/14 00:42:25;;;;;;;10.48;3.00;;;3.20;99.90;;;;;;5003921;28;20787;-61
2021/03/14 00:44:51;;;;;;;7.72;2.70;;;3.20;99.90;;;;;;5011876;28;20033;-62
2021/03/14 00:47:16;;;;;;;10.63;4.00;;;3.20;99.90;;;;;;5011226;28;20049;-61
2021/03/14 00:49:42;;;;;;;12.88;3.95;;;3.10;99.90;;;;;;5004891;28;20030;-61
2021/03/14 00:52:07;;;;;;;9.88;4.03;;;3.10;99.90;;;;;;5004062;28;20081;-61
2021/03/14 00:54:34;;;;;;;12.38;4.00;;;3.20;99.90;;;;;;5008591;28;20038;-60
2021/03/14 00:57:00;;;;;;;12.43;4.60;;;3.20;99.90;;;;;;5006112;28;20069;-62
2021/03/14 00:59:25;;;;;;;13.90;5.00;;;3.30;99.90;;;;;;5006080;28;20053;-61
2021/03/14 01:01:51;;;;;;;13.32;4.45;;;3.30;99.90;;;;;;5005442;28;20038;-61
2021/03/14 01:04:17;;;;;;;13.00;4.82;;;3.40;99.90;;;;;;5005625;28;20521;-61
2021/03/14 01:06:42;;;;;;;14.32;4.78;;;3.40;99.90;;;;;;5010792;28;20033;-61
2021/03/14 01:09:08;;;;;;;8.48;3.95;;;3.40;99.90;;;;;;5011454;28;20057;-60
2021/03/14 01:11:33;;;;;;;15.20;4.32;;;3.40;99.90;;;;;;5010852;28;20026;-62
2021/03/14 01:13:59;;;;;;;12.70;4.45;;;3.40;99.90;;;;;;5015024;28;20029;-60
2021/03/14 01:16:24;;;;;;;10.30;3.50;;;3.40;99.90;;;;;;5015803;28;20068;-60
2021/03/14 01:18:50;;;;;;;10.65;3.63;;;3.40;99.90;;;;;;5006788;28;20663;-62
2021/03/14 01:21:16;;;;;;;14.38;3.17;;;3.40;99.90;;;;;;5008400;28;20045;-62
2021/03/14 01:23:41;;;;;;;10.60;2.83;;;3.50;99.90;;;;;;5001295;28;20097;-62
2021/03/14 01:26:07;;;;;;;13.80;3.17;;;3.60;99.90;;;;;;5005273;28;20030;-62
2021/03/14 01:28:34;;;;;;;10.48;2.53;;;3.70;99.90;;;;;;5006998;28;20113;-63
2021/03/14 01:31:00;;;;;;;16.67;2.70;;;3.80;99.90;;;;;;5003524;28;20034;-61
2021/03/14 01:33:26;;;;;;;12.07;3.08;;;3.90;99.90;;;;;;5001184;28;20033;-62
2021/03/14 01:35:51;;;;;;;10.73;2.97;;;3.80;99.90;;;;;;4998633;28;20109;-62
2021/03/14 01:38:17;;;;;;;12.65;2.75;;;3.90;99.90;;;;;;5001091;28;20504;-62
2021/03/14 01:40:43;;;;;;;14.57;4.05;;;3.90;99.90;;;;;;5004394;28;20375;-63
2021/03/14 01:43:08;;;;;;;12.15;2.80;;;3.90;99.90;;;;;;4997791;28;20037;-61
2021/03/14 01:45:34;;;;;;;11.25;2.78;;;3.90;99.90;;;;;;5002432;28;20475;-63
2021/03/14 01:48:03;;;;;;;12.73;2.10;;;3.90;99.90;;;;;;5001331;28;20026;-63
2021/03/14 01:50:30;;;;;;;5.57;1.98;;;3.80;99.90;;;;;;4996395;28;20037;-61
2021/03/14 01:52:57;;;;;;;14.98;2.72;;;3.80;99.90;;;;;;4994271;28;20053;-61
2021/03/14 01:55:24;;;;;;;7.78;1.73;;;3.80;99.90;;;;;;5003834;28;20034;-60
2021/03/14 01:57:50;;;;;;;11.25;2.83;;;3.80;99.90;;;;;;5002854;28;20022;-62
2021/03/14 02:00:22;;;;;;;9.70;1.67;;;3.70;99.90;;;;;;5003892;28;20596;-62
2021/03/14 02:02:48;;;;;;;7.63;1.83;;;3.80;99.90;;;;;;5010620;28;20361;-60
2021/03/14 02:05:16;;;;;;;6.15;1.85;;;3.80;99.90;;;;;;5006915;28;20031;-61
2021/03/14 02:07:44;;;;;;;7.43;1.45;;;3.80;99.90;;;;;;5018800;28;20021;-60
2021/03/14 02:10:12;;;;;;;6.13;1.70;;;3.80;99.90;;;;;;5016309;28;20403;-61
2021/03/14 02:13:18;;;;;;;8.23;1.90;;;3.80;99.90;;;;;;5009332;28;20030;-63
2021/03/14 02:15:53;;;;;;;8.65;1.63;;;3.80;99.90;;;;;;5005821;28;20138;-62
2021/03/14 02:18:20;;;;;;;7.25;1.58;;;3.80;99.90;;;;;;4999528;28;20030;-59
2021/03/14 02:20:46;;;;;;;5.25;1.80;;;3.80;99.90;;;;;;5008359;28;20033;-61
2021/03/14 02:23:50;;;;;;;6.03;1.60;;;3.80;99.90;;;;;;5004279;28;20037;-62
2021/03/14 02:26:23;;;;;;;12.60;1.88;;;3.90;99.90;;;;;;4999292;28;20034;-62
2021/03/14 02:28:50;;;;;;;4.97;1.40;;;4.00;99.90;;;;;;5008244;28;20037;-61
2021/03/14 02:31:20;;;;;;;10.93;1.15;;;4.00;99.90;;;;;;5010464;28;20273;-62
2021/03/14 02:33:51;;;;;;;2.65;1.20;;;4.00;99.90;;;;;;5005057;28;20026;-61
2021/03/14 02:36:18;;;;;;;8.32;2.00;;;4.00;99.90;;;;;;5007601;28;20036;-62
2021/03/14 02:38:46;;;;;;;2.22;1.10;;;4.00;99.90;;;;;;5007917;28;20022;-61
2021/03/14 02:41:12;;;;;;;5.68;1.10;;;4.00;99.90;;;;;;5012074;28;20217;-62
2021/03/14 02:43:39;;;;;;;10.48;1.65;;;4.00;99.90;;;;;;5012474;28;20437;-63
2021/03/14 02:46:06;;;;;;;12.02;2.03;;;4.10;99.90;;;;;;5009462;28;20032;-62
2021/03/14 02:48:33;;;;;;;7.22;1.50;;;4.10;99.90;;;;;;4995139;28;20216;-61
2021/03/14 02:51:01;;;;;;;6.65;1.40;;;4.10;99.90;;;;;;4994199;28;20153;-62
2021/03/14 02:53:27;;;;;;;8.90;1.52;;;4.10;99.90;;;;;;5008601;28;20022;-63
2021/03/14 02:55:54;;;;;;;4.60;1.20;;;4.10;99.90;;;;;;5009693;28;20024;-61
2021/03/14 02:58:21;;;;;;;4.07;1.70;;;4.10;99.90;;;;;;5009047;28;20072;-62
2021/03/14 03:00:48;;;;;;;9.15;1.70;;;4.10;99.90;;;;;;4996412;28;20027;-59
2021/03/14 03:03:13;;;;;;;8.60;1.75;;;4.10;99.90;;;;;;5000925;28;20025;-62
2021/03/14 03:05:40;;;;;;;9.93;2.15;;;4.00;99.90;;;;;;4985451;28;20052;-62
2021/03/14 03:08:07;;;;;;;8.23;1.77;;;4.00;99.90;;;;;;5008183;28;20030;-61
2021/03/14 03:10:40;;;;;;;6.85;1.20;;;4.00;99.90;;;;;;5011333;28;20115;-63
2021/03/14 03:13:07;;;;;;;9.00;1.83;;;4.10;99.90;;;;;;4996447;28;20081;-61
2021/03/14 03:15:33;;;;;;;6.15;1.48;;;4.10;99.90;;;;;;4997498;28;20042;-61
2021/03/14 03:18:00;;;;;;;6.72;1.60;;;4.00;99.90;;;;;;5011745;28;20025;-62
2021/03/14 03:20:26;;;;;;;5.22;1.50;;;4.10;99.90;;;;;;5016206;28;20022;-61
2021/03/14 03:22:53;;;;;;;7.63;1.55;;;4.10;99.90;;;;;;5002911;28;20048;-61
2021/03/14 03:25:19;;;;;;;12.43;1.90;;;4.10;99.90;;;;;;5004968;28;20066;-62
2021/03/14 03:27:44;;;;;;;7.43;1.85;;;4.10;99.90;;;;;;5005562;28;20025;-61
2021/03/14 03:30:13;;;;;;;8.00;2.20;;;4.10;99.90;;;;;;5005946;28;20492;-62
2021/03/14 03:32:39;;;;;;;8.90;1.85;;;4.00;99.90;;;;;;5015233;28;20080;-62
2021/03/14 03:35:10;;;;;;;5.90;2.13;;;4.10;99.90;;;;;;4990271;28;20034;-61
2021/03/14 03:37:36;;;;;;;9.45;3.78;;;4.10;99.90;;;;;;4998649;28;20104;-61
2021/03/14 03:40:08;;;;;;;5.82;2.00;;;4.10;99.90;;;;;;5007094;28;20030;-59
2021/03/14 03:42:40;;;;;;;9.65;2.33;;;4.10;99.90;;;;;;5013038;28;20046;-63
2021/03/14 03:45:07;;;;;;;11.05;2.25;;;4.00;99.90;;;;;;5014165;28;20368;-61
2021/03/14 03:47:35;;;;;;;15.43;2.88;;;4.10;99.90;;;;;;4998181;28;20025;-60
2021/03/14 03:50:01;;;;;;;7.22;3.20;;;4.00;99.90;;;;;;5002792;28;20050;-60
2021/03/14 03:52:27;;;;;;;8.73;3.55;;;4.00;99.90;;;;;;5000968;28;20209;-62
2021/03/14 03:54:55;;;;;;;12.35;3.53;;;4.00;99.90;;;;;;5011048;28;20022;-61
2021/03/14 03:57:21;;;;;;;9.77;3.60;;;4.00;99.90;;;;;;5002776;28;20072;-63
2021/03/14 03:59:48;;;;;;;9.32;3.60;;;3.90;99.90;;;;;;5018390;28;20029;-63
2021/03/14 04:02:15;;;;;;;14.40;4.00;;;3.90;99.90;;;;;;5018934;28;20498;-63
2021/03/14 04:04:43;;;;;;;12.43;4.80;;;3.90;99.90;;;;;;5008499;28;20108;-63
2021/03/14 04:07:11;;;;;;;12.77;5.07;;;3.90;99.90;;;;;;4981246;28;20046;-62
2021/03/14 04:09:38;;;;;;;14.25;5.32;;;3.90;99.90;;;;;;5007583;28;20065;-62
2021/03/14 04:12:04;;;;;;;11.57;4.40;;;3.90;99.90;;;;;;4995559;28;20022;-60
2021/03/14 04:14:31;;;;;;;14.75;5.80;;;3.90;99.90;;;;;;5009136;28;20393;-59
2021/03/14 04:16:58;;;;;;;11.07;4.95;;;4.00;99.90;;;;;;5017471;28;20508;-60
2021/03/14 04:19:28;;;;;;;9.32;5.55;;;3.90;99.90;;;;;;5001415;28;20069;-62
2021/03/14 04:21:55;;;;;;;14.60;5.43;;;3.90;99.90;;;;;;5008724;28;20582;-61
2021/03/14 04:24:23;;;;;;;16.40;5.47;;;3.90;99.90;;;;;;5019058;28;20092;-59
2021/03/14 04:26:50;;;;;;;11.05;5.28;;;3.90;99.90;;;;;;5009565;28;20048;-60
2021/03/14 04:29:17;;;;;;;12.45;5.90;;;3.90;99.90;;;;;;5012332;28;20116;-61
2021/03/14 04:31:44;;;;;;;15.30;5.43;;;3.90;99.90;;;;;;5023662;28;20026;-60
2021/03/14 04:34:12;;;;;;;10.07;5.72;;;3.90;99.90;;;;;;5008952;28;20113;-59
2021/03/14 04:36:39;;;;;;;12.52;4.95;;;3.90;99.90;;;;;;5008953;28;20039;-61
2021/03/14 04:39:05;;;;;;;17.40;5.60;;;3.90;99.90;;;;;;4996491;28;20034;-61
2021/03/14 04:41:33;;;;;;;17.83;5.47;;;3.90;99.90;;;;;;5004580;28;20034;-59
2021/03/14 04:44:00;;;;;;;11.13;4.82;;;3.90;99.90;;;;;;5012985;28;20030;-62
2021/03/14 04:46:26;;;;;;;9.85;5.57;;;3.90;99.90;;;;;;5000208;28;20037;-60
2021/03/14 04:48:58;;;;;;;10.95;4.90;;;3.90;99.90;;;;;;5007731;28;20023;-59
2021/03/14 04:51:26;;;;;;;14.73;4.28;;;3.90;99.90;;;;;;4995121;28;20076;-59
2021/03/14 04:53:54;;;;;;;9.80;4.93;;;3.90;99.90;;;;;;4997903;28;20041;-60
2021/03/14 04:56:21;;;;;;;13.75;5.93;;;3.90;99.90;;;;;;5009595;28;20030;-60
2021/03/14 04:58:49;;;;;;;13.45;5.55;;;3.90;99.90;;;;;;4994445;28;20124;-60
2021/03/14 05:01:18;;;;;;;12.95;5.72;;;3.90;99.90;;;;;;5009520;28;20105;-60
2021/03/14 05:03:45;;;;;;;12.20;6.10;;;3.90;99.90;;;;;;4999260;28;20156;-59
2021/03/14 05:06:15;;;;;;;12.80;6.38;;;4.00;99.90;;;;;;4994291;28;20049;-60
2021/03/14 05:08:43;;;;;;;21.58;7.35;;;4.00;99.90;;;;;;5007488;28;20025;-60
2021/03/14 05:11:08;;;;;;;14.88;6.50;;;4.00;99.90;;;;;;5006188;28;20029;-60
2021/03/14 05:13:36;;;;;;;18.17;7.07;;;4.00;99.90;;;;;;5004117;28;20485;-60
2021/03/14 05:16:02;;;;;;;16.00;7.00;;;4.00;99.90;;;;;;5004966;28;20068;-61
2021/03/14 05:18:28;;;;;;;19.98;8.73;;;4.00;99.90;;;;;;5013822;28;20645;-60
2021/03/14 05:20:55;;;;;;;19.30;7.68;;;4.00;99.90;;;;;;5014949;28;20060;-61
2021/03/14 05:23:21;;;;;;;28.88;7.70;;;4.00;99.90;;;;;;5006916;28;20030;-61
2021/03/14 05:25:48;;;;;;;19.65;8.07;;;4.00;99.90;;;;;;5012826;28;20083;-60
2021/03/14 05:28:14;;;;;;;17.92;7.63;;;4.00;99.90;;;;;;5002321;28;20415;-59
2021/03/14 05:30:42;;;;;;;18.33;7.00;;;4.00;99.90;;;;;;5016157;28;20029;-59
2021/03/14 05:33:08;;;;;;;13.98;6.80;;;4.00;99.90;;;;;;5007795;28;20029;-60
2021/03/14 05:35:33;;;;;;;25.42;7.22;;;4.00;99.90;;;;;;5002334;28;20535;-61
2021/03/14 05:38:00;;;;;;;15.65;6.80;;;4.00;99.90;;;;;;5004119;28;20480;-60
2021/03/14 05:40:28;;;;;;;19.50;6.30;;;4.00;99.90;;;;;;4996459;28;20034;-61
2021/03/14 05:42:58;;;;;;;14.60;6.25;;;4.00;99.90;;;;;;5004844;28;20526;-60
2021/03/14 05:45:24;;;;;;;15.27;6.07;;;4.00;99.90;;;;;;5008480;28;20037;-59
2021/03/14 05:47:50;;;;;;;14.73;6.05;;;4.00;99.90;;;;;;5007207;28;20021;-61
2021/03/14 05:50:25;;;;;;;19.88;6.10;;;4.00;99.90;;;;;;4990748;28;20042;-59
2021/03/14 05:52:52;;;;;;;22.85;7.05;;;4.00;99.90;;;;;;5006006;28;20030;-61
2021/03/14 05:55:19;;;;;;;24.02;6.30;;;4.00;99.90;;;;;;5007126;28;20235;-59
2021/03/14 05:57:47;;;;;;;18.65;6.53;;;4.00;99.90;;;;;;5011805;28;20030;-61
2021/03/14 06:00:22;;;;;;;17.98;6.93;;;4.00;99.90;;;;;;5009482;28;20661;-61
2021/03/14 06:02:50;;;;;;;13.32;5.72;;;4.00;99.90;;;;;;5002089;28;20113;-59
2021/03/14 06:05:17;;;;;;;14.52;5.47;;;4.00;99.90;;;;;;4988517;28;20511;-60
2021/03/14 06:07:43;;;;;;;12.30;5.85;;;4.00;99.90;;;;;;5008105;28;20041;-61
2021/03/14 06:10:09;;;;;;;15.82;5.93;;;4.00;99.90;;;;;;5015415;28;20023;-58
2021/03/14 06:12:35;;;;;;;11.77;5.32;;;4.00;99.90;;;;;;5005674;28;20026;-59
2021/03/14 06:15:00;;;;;;;23.90;6.03;;;4.10;99.90;;;;;;5020158;28;20356;-59
2021/03/14 06:17:27;;;;;;;15.02;5.82;;;4.00;99.90;;;;;;4997765;28;20069;-61
2021/03/14 06:19:53;;;;;;;21.42;5.55;;;4.10;99.90;;;;;;5003097;28;20038;-59
2021/03/14 06:22:23;;;;;;;27.10;6.70;;;4.10;99.90;;;;;;5002447;28;20037;-59
2021/03/14 06:24:51;;;;;;;18.15;5.70;;;4.10;99.90;;;;;;4992429;28;20049;-60
2021/03/14 06:27:51;;;;;;;17.90;5.57;;;4.20;99.90;;;;;;4997195;28;20030;-59
2021/03/14 06:30:18;;;;;;;17.17;6.00;;;4.20;99.90;;;;;;4991396;28;20630;-60
2021/03/14 06:33:02;;;;;;;18.95;5.55;;;4.20;99.90;;;;;;5005907;28;20184;-60
2021/03/14 06:35:56;;;;;;;12.60;5.57;;;4.20;99.90;;;;;;5006652;28;20160;-60
2021/03/14 06:38:29;;;;;;;15.75;5.93;;;4.20;99.90;;;;;;4997951;28;20040;-59
2021/03/14 06:41:06;;;;;;;14.27;4.93;;;4.30;99.90;;;;;;5007592;28;20026;-61
2021/03/14 06:43:42;;;;;;;13.60;6.18;;;4.40;99.90;;;;;;4995676;28;20106;-61
2021/03/14 06:46:28;;;;;;;12.63;5.22;;;4.40;99.90;;;;;;5007963;28;20450;-61
2021/03/14 06:49:04;;;;;;;15.32;5.88;;;4.50;99.90;;;;;;5002908;28;20015;-61
2021/03/14 06:51:40;;;;;;;15.43;5.40;;;4.60;99.90;;;;;;4999241;28;20104;-60
2021/03/14 06:54:28;;;;;;;14.25;6.13;;;4.60;99.90;;;;;;4998507;28;20038;-59
2021/03/14 06:56:58;;;;;;;14.07;5.25;;;4.60;99.90;;;;;;5008848;28;20494;-60
2021/03/14 06:59:24;;;;;;;19.88;6.15;;;4.60;99.90;;;;;;5004244;28;20030;-61
2021/03/14 07:02:04;;;;;;;12.30;5.80;;;4.60;99.90;;;;;;5010974;28;20026;-61
2021/03/14 07:04:34;;;;;;;14.50;5.68;;;4.60;99.90;;;;;;5005765;28;20072;-61
2021/03/14 07:07:00;;;;;;;14.45;5.65;;;4.60;99.90;;;;;;5009759;28;20438;-61
2021/03/14 07:09:26;;;;;;;19.02;5.00;;;4.50;99.90;;;;;;5008197;28;20058;-60
2021/03/14 07:11:52;;;;;;;20.88;6.25;;;4.60;99.90;;;;;;5005536;28;20022;-61
2021/03/14 07:14:20;;;;;;;13.75;5.53;;;4.60;99.90;;;;;;5013594;28;20126;-59
2021/03/14 07:16:55;;;;;;;22.33;6.18;;;4.50;99.90;;;;;;5005749;28;20033;-59
2021/03/14 07:19:31;;;;;;;11.02;5.18;;;4.60;99.90;;;;;;5009107;28;20402;-60
2021/03/14 07:22:01;;;;;;;14.45;5.78;;;4.70;99.90;;;;;;5013517;28;20117;-60
2021/03/14 07:24:38;;;;;;;10.35;4.90;;;4.70;99.90;;;;;;5019803;28;20038;-59
2021/03/14 07:27:09;;;;;;;14.95;5.07;;;4.80;99.90;;;;;;5015974;28;20520;-60
2021/03/14 07:29:35;;;;;;;17.45;5.70;;;4.80;99.90;;;;;;4997907;28;20042;-62
2021/03/14 07:32:05;;;;;;;14.88;5.72;;;4.90;99.90;;;;;;5008441;28;20262;-61
2021/03/14 07:34:31;;;;;;;12.80;5.45;;;4.90;99.90;;;;;;5007178;28;20034;-60
2021/03/14 07:36:57;;;;;;;11.70;5.35;;;4.90;99.90;;;;;;4991725;28;20053;-61
2021/03/14 07:39:23;;;;;;;11.23;4.63;;;4.90;99.90;;;;;;5000267;28;20523;-61
2021/03/14 07:41:49;;;;;;;13.23;5.60;;;4.90;99.90;;;;;;4996665;28;20141;-61
2021/03/14 07:44:18;;;;;;;16.63;5.72;;;4.90;99.90;;;;;;4999006;28;20084;-62
2021/03/14 07:46:45;;;;;;;14.48;5.82;;;4.90;99.90;;;;;;4991932;28;20297;-59
2021/03/14 07:49:12;;;;;;;16.02;4.82;;;5.00;99.90;;;;;;5009453;28;20057;-60
2021/03/14 07:51:41;;;;;;;11.23;5.47;;;5.10;99.90;;;;;;5005609;28;20057;-59
2021/03/14 07:54:10;;;;;;;17.55;5.15;;;5.20;99.90;;;;;;5009563;28;20022;-62
2021/03/14 07:56:39;;;;;;;11.32;4.95;;;5.50;99.90;;;;;;4992088;28;20054;-61
2021/03/14 07:59:06;;;;;;;8.85;4.30;;;5.70;99.90;;;;;;5005285;28;20030;-60
2021/03/14 08:01:35;;;;;;;14.70;5.30;;;5.90;99.90;;;;;;5006787;28;20060;-61
2021/03/14 08:04:01;;;;;;;8.77;3.83;;;6.10;99.90;;;;;;5008556;28;22088;-62
2021/03/14 08:06:45;;;;;;;7.63;3.33;;;6.30;99.90;;;;;;5013314;28;20041;-60
2021/03/14 08:09:12;;;;;;;17.20;6.55;;;6.40;99.90;;;;;;5003181;28;20026;-58
2021/03/14 08:11:37;;;;;;;24.30;11.55;;;6.30;99.90;;;;;;5012070;28;20110;-62
2021/03/14 08:14:03;;;;;;;33.42;10.20;;;6.10;99.90;;;;;;5014029;28;20112;-60
2021/03/14 08:16:29;;;;;;;12.10;5.93;;;6.10;99.90;;;;;;5012466;28;20026;-61
2021/03/14 08:18:57;;;;;;;16.30;5.22;;;6.10;99.90;;;;;;5016801;28;20392;-61
2021/03/14 08:21:22;;;;;;;18.10;7.97;;;6.10;99.90;;;;;;5019247;28;20076;-59
2021/03/14 08:23:56;;;;;;;34.90;17.95;;;6.10;99.90;;;;;;5004433;28;20038;-59
2021/03/14 08:26:22;;;;;;;;;;;6.30;99.90;;;;;;5006447;28;20026;-59
2021/03/14 08:29:01;;;;;;;18.98;8.00;;;6.30;99.90;;;;;;5013543;28;20267;-60
2021/03/14 08:31:35;;;;;;;16.15;4.70;;;6.40;99.90;;;;;;5018060;28;20069;-60
2021/03/14 08:34:01;;;;;;;18.98;8.23;;;6.10;99.90;;;;;;5022500;28;20025;-58
2021/03/14 08:36:37;;;;;;;16.75;5.20;;;5.90;99.90;;;;;;4987468;28;20048;-61
2021/03/14 08:39:06;;;;;;;14.63;4.72;;;5.70;99.90;;;;;;5016120;28;20037;-60
2021/03/14 08:41:51;;;;;;;15.10;5.13;;;5.50;99.90;;;;;;5002331;28;20033;-61
2021/03/14 08:44:30;;;;;;;21.38;5.28;;;5.30;99.90;;;;;;5007323;28;20022;-60
2021/03/14 08:46:55;;;;;;;16.70;5.40;;;5.10;99.90;;;;;;5011285;28;20069;-61
2021/03/14 08:49:22;;;;;;;13.07;5.35;;;5.20;99.90;;;;;;5022123;28;20080;-61
2021/03/14 08:51:49;;;;;;;15.07;6.05;;;5.30;99.90;;;;;;5012803;28;20953;-62
2021/03/14 08:54:15;;;;;;;11.88;5.38;;;5.40;99.90;;;;;;5014217;28;20100;-63
2021/03/14 08:56:41;;;;;;;15.95;5.60;;;5.50;99.90;;;;;;5015694;28;20065;-61
2021/03/14 08:59:10;;;;;;;19.23;7.03;;;5.70;99.90;;;;;;5023483;28;20053;-62
2021/03/14 09:01:37;;;;;;;16.67;4.90;;;5.70;99.90;;;;;;5003665;28;20048;-62
2021/03/14 09:04:14;;;;;;;19.52;6.55;;;5.60;99.90;;;;;;5015243;28;20824;-60
2021/03/14 09:06:40;;;;;;;28.13;15.55;;;5.50;99.90;;;;;;5010800;28;20029;-62
2021/03/14 09:09:08;;;;;;;14.00;6.43;;;5.60;99.90;;;;;;5007237;28;20019;-63
2021/03/14 09:11:41;;;;;;;18.60;6.30;;;5.60;99.90;;;;;;5001119;28;20030;-61
2021/03/14 09:14:28;;;;;;;15.32;7.00;;;5.60;99.90;;;;;;5004087;28;20128;-60
2021/03/14 09:16:59;;;;;;;14.38;5.93;;;5.80;99.90;;;;;;5003501;28;20517;-62
2021/03/14 09:19:33;;;;;;;25.20;7.70;;;5.80;99.90;;;;;;4999663;28;20034;-61
2021/03/14 09:22:06;;;;;;;31.08;12.25;;;5.90;99.90;;;;;;5006707;28;20034;-61
2021/03/14 09:24:39;;;;;;;21.93;9.30;;;6.10;99.90;;;;;;5005597;28;20500;-59
2021/03/14 09:27:08;;;;;;;31.50;13.95;;;6.30;99.90;;;;;;5011023;28;20022;-61
2021/03/14 09:29:42;;;;;;;21.80;7.60;;;6.20;99.90;;;;;;5008066;28;20034;-61
2021/03/14 09:32:27;;;;;;;20.05;7.47;;;6.30;99.90;;;;;;5003892;28;20025;-61
2021/03/14 09:35:17;;;;;;;22.98;7.63;;;6.20;99.90;;;;;;4996510;28;20034;-61
2021/03/14 09:37:52;;;;;;;155.15;68.35;;;6.10;99.90;;;;;;5005134;28;20057;-61
2021/03/14 09:40:22;;;;;;;26.42;11.75;;;6.00;99.90;;;;;;5004127;28;20041;-60
2021/03/14 09:43:15;;;;;;;21.92;7.10;;;5.90;99.90;;;;;;5004957;28;20081;-61
2021/03/14 09:45:45;;;;;;;22.95;6.32;;;5.90;99.90;;;;;;5005326;28;20037;-60
2021/03/14 09:48:18;;;;;;;23.50;8.70;;;6.00;99.90;;;;;;5011961;28;20495;-60
2021/03/14 09:50:50;;;;;;;25.98;8.02;;;6.00;99.90;;;;;;4990514;28;20037;-60
2021/03/14 09:53:17;;;;;;;17.38;8.13;;;5.90;99.90;;;;;;5003438;28;20026;-61
2021/03/14 09:55:48;;;;;;;19.67;7.22;;;5.90;99.90;;;;;;5008397;28;20460;-61
2021/03/14 09:58:17;;;;;;;24.58;10.73;;;5.70;99.90;;;;;;5011025;28;20076;-60
2021/03/14 10:00:45;;;;;;;20.15;11.63;;;5.50;99.90;;;;;;5003048;28;20029;-59
2021/03/14 10:03:20;;;;;;;30.02;12.50;;;5.50;99.90;;;;;;5003509;28;20409;-61
2021/03/14 10:05:50;;;;;;;29.45;10.68;;;5.40;99.90;;;;;;5012995;28;20038;-60
2021/03/14 10:08:22;;;;;;;18.13;10.63;;;5.30;99.90;;;;;;4984020;28;20058;-60
2021/03/14 10:10:49;;;;;;;22.27;9.20;;;5.30;99.90;;;;;;5011359;28;20403;-61
2021/03/14 10:13:16;;;;;;;19.45;9.25;;;5.30;99.90;;;;;;5004686;28;20076;-61
2021/03/14 10:15:42;;;;;;;14.85;6.85;;;5.30;99.90;;;;;;4991371;28;20118;-61
2021/03/14 10:18:08;;;;;;;15.73;6.60;;;5.30;99.90;;;;;;4999609;28;20085;-61
2021/03/14 10:20:36;;;;;;;15.93;8.40;;;5.30;99.90;;;;;;4999579;28;20430;-61
2021/03/14 10:23:08;;;;;;;58.08;25.50;;;5.30;99.90;;;;;;5002539;28;20029;-62
2021/03/14 10:25:36;;;;;;;29.33;14.38;;;5.20;99.90;;;;;;5018187;28;20395;-59
2021/03/14 10:28:10;;;;;;;42.85;19.98;;;5.20;99.90;;;;;;4997101;28;20120;-61
2021/03/14 10:30:37;;;;;;;23.45;11.98;;;5.30;99.90;;;;;;5012181;28;20045;-61
2021/03/14 10:33:04;;;;;;;20.67;9.57;;;5.40;99.90;;;;;;5005634;28;20080;-61
2021/03/14 10:35:30;;;;;;;16.38;7.53;;;5.40;99.90;;;;;;5001455;28;20040;-61
2021/03/14 10:37:56;;;;;;;19.02;8.55;;;5.30;99.90;;;;;;5004500;28;20487;-60
2021/03/14 10:40:24;;;;;;;11.80;7.47;;;5.20;99.90;;;;;;4996665;28;20065;-60
2021/03/14 10:42:50;;;;;;;15.52;7.82;;;5.10;99.90;;;;;;5006329;28;20037;-62
2021/03/14 10:45:17;;;;;;;10.70;6.82;;;5.10;99.90;;;;;;4994332;28;20077;-60
2021/03/14 10:47:45;;;;;;;12.07;7.13;;;5.10;99.90;;;;;;5010225;28;20025;-61
2021/03/14 10:50:17;;;;;;;12.02;8.07;;;5.20;99.90;;;;;;5022558;28;20025;-61
2021/03/14 10:52:43;;;;;;;15.10;8.75;;;5.10;99.90;;;;;;5008019;28;20029;-60
2021/03/14 10:55:30;;;;;;;11.10;7.38;;;5.20;99.90;;;;;;5022614;28;20036;-59
2021/03/14 10:58:15;;;;;;;12.52;8.05;;;5.30;99.90;;;;;;4992128;28;20145;-60
2021/03/14 11:00:48;;;;;;;21.65;7.78;;;5.40;99.90;;;;;;4992298;28;20060;-60
2021/03/14 11:03:30;;;;;;;18.35;8.77;;;5.50;99.90;;;;;;5006962;28;20030;-59
2021/03/14 11:06:34;;;;;;;9.75;6.32;;;5.70;99.90;;;;;;5007935;28;20037;-60
2021/03/14 11:09:09;;;;;;;10.63;5.85;;;5.80;99.90;;;;;;5001595;28;20503;-60
2021/03/14 11:11:43;;;;;;;9.65;4.90;;;6.00;99.90;;;;;;4998988;28;20030;-63
2021/03/14 11:14:41;;;;;;;16.70;9.18;;;6.10;99.90;;;;;;5002376;28;20049;-59
2021/03/14 11:17:16;;;;;;;9.40;4.93;;;6.10;99.90;;;;;;5003448;28;20176;-60
2021/03/14 11:19:47;;;;;;;16.95;10.65;;;5.90;99.90;;;;;;5006995;28;20128;-59
2021/03/14 11:22:18;;;;;;;26.27;16.92;;;5.90;99.90;;;;;;4999889;28;20072;-60
2021/03/14 11:24:45;;;;;;;13.93;8.48;;;5.90;99.90;;;;;;5002012;28;20562;-59
2021/03/14 11:27:11;;;;;;;16.70;7.65;;;6.00;99.90;;;;;;5007512;28;20114;-60
2021/03/14 11:29:37;;;;;;;11.20;6.13;;;6.10;99.90;;;;;;4996983;28;20602;-60
2021/03/14 11:32:05;;;;;;;12.13;6.45;;;6.40;99.90;;;;;;5005900;28;20064;-59
2021/03/14 11:34:31;;;;;;;15.48;6.82;;;6.30;99.90;;;;;;5012310;28;20453;-60
2021/03/14 11:36:57;;;;;;;14.63;7.40;;;6.20;99.90;;;;;;4991436;28;20022;-61
2021/03/14 11:39:23;;;;;;;11.45;6.30;;;6.20;99.90;;;;;;5003650;28;20036;-61
2021/03/14 11:41:49;;;;;;;9.30;6.53;;;6.20;99.90;;;;;;5005272;28;20112;-61
2021/03/14 11:44:15;;;;;;;13.07;8.82;;;6.00;99.90;;;;;;4997977;28;20175;-62
2021/03/14 11:46:42;;;;;;;17.55;11.55;;;5.90;99.90;;;;;;5001055;28;20034;-59
2021/03/14 11:49:08;;;;;;;27.45;17.92;;;5.80;99.90;;;;;;4991187;28;20050;-61
2021/03/14 11:51:33;;;;;;;32.38;17.92;;;5.60;99.90;;;;;;4996404;28;20029;-59
2021/03/14 11:53:59;;;;;;;11.65;8.00;;;5.60;99.90;;;;;;4997016;28;20508;-60
2021/03/14 11:56:26;;;;;;;14.52;9.30;;;5.60;99.90;;;;;;4993082;28;20026;-62
2021/03/14 11:58:52;;;;;;;13.57;8.65;;;5.60;99.90;;;;;;4997888;28;20164;-58
2021/03/14 12:01:18;;;;;;;9.65;6.68;;;5.70;99.90;;;;;;4998861;28;20108;-59
2021/03/14 12:03:44;;;;;;;9.02;5.38;;;6.00;99.90;;;;;;5006872;28;20577;-61
2021/03/14 12:06:11;;;;;;;11.68;7.65;;;6.00;99.90;;;;;;5003958;28;20535;-60
2021/03/14 12:08:37;;;;;;;9.10;5.25;;;6.20;99.90;;;;;;5004617;28;20062;-61
2021/03/14 12:11:05;;;;;;;7.82;4.90;;;6.40;99.90;;;;;;4985154;28;20132;-61
2021/03/14 12:13:32;;;;;;;5.38;4.20;;;6.60;99.90;;;;;;4998507;28;20034;-61
2021/03/14 12:15:58;;;;;;;6.82;3.95;;;6.70;99.90;;;;;;5002541;28;20475;-62
2021/03/14 12:18:23;;;;;;;11.43;5.68;;;6.80;99.90;;;;;;4997259;28;20164;-61
2021/03/14 12:20:49;;;;;;;7.18;3.92;;;7.10;99.90;;;;;;4998052;28;20037;-62
2021/03/14 12:23:15;;;;;;;7.28;3.38;;;7.40;99.90;;;;;;5002169;28;20440;-61
2021/03/14 12:25:40;;;;;;;6.53;3.88;;;7.60;99.90;;;;;;5008327;28;20036;-62
2021/03/14 12:28:06;;;;;;;8.48;4.07;;;7.80;99.90;;;;;;4998346;28;20437;-61
2021/03/14 12:30:32;;;;;;;5.00;3.55;;;8.10;99.90;;;;;;5000872;28;20050;-62
2021/03/14 12:32:58;;;;;;;7.70;3.80;;;8.20;99.90;;;;;;5012203;28;20101;-59
2021/03/14 12:35:23;;;;;;;5.65;3.38;;;8.30;99.90;;;;;;5014488;28;20136;-61
2021/03/14 12:37:49;;;;;;;9.00;4.43;;;8.20;99.90;;;;;;4991439;28;20038;-59
2021/03/14 12:40:15;;;;;;;10.10;3.72;;;7.70;99.90;;;;;;5001565;28;20420;-60
2021/03/14 12:42:40;;;;;;;6.78;4.68;;;7.70;99.90;;;;;;4995694;28;20140;-60
2021/03/14 12:45:06;;;;;;;7.53;4.20;;;7.70;99.90;;;;;;5020155;28;20500;-62
2021/03/14 12:47:32;;;;;;;6.90;4.50;;;7.90;99.90;;;;;;5008399;28;20034;-60
2021/03/14 12:50:00;;;;;;;5.32;4.50;;;8.10;99.90;;;;;;5008001;28;20029;-61
2021/03/14 12:52:27;;;;;;;8.63;4.85;;;8.20;99.90;;;;;;5005088;28;20109;-62
2021/03/14 12:54:52;;;;;;;6.18;4.30;;;8.20;99.90;;;;;;5010933;28;20026;-62
2021/03/14 12:57:18;;;;;;;10.82;7.68;;;8.10;99.90;;;;;;4988749;28;20038;-61
2021/03/14 12:59:43;;;;;;;9.38;6.60;;;7.70;99.90;;;;;;5004103;28;20026;-61